Time;durP1;ratioP1;P1;durP2;ratioP2;P2;SDS_P1;SDS_P2;PMS_P1;PMS_P2;Temp;Humidity;BMP_temperature;BMP_pressure;BME280_temperature;BME280_humidity;BME280_pressure;Samples;Min_cycle;Max_cycle;Signal;HPM_P1;HPM_P2
2023/05/22 00:01:48;;;;;;;16.08;10.77;;;;;;;13.55;100.00;96219.38;5023250;28;20119;-67
2023/05/22 00:04:19;;;;;;;16.50;12.07;;;;;;;13.47;100.00;96217.03;5016479;28;20512;-67
2023/05/22 00:06:45;;;;;;;16.42;12.23;;;;;;;13.32;100.00;96219.03;5021535;28;20065;-67
2023/05/22 00:09:11;;;;;;;19.92;12.48;;;;;;;13.15;100.00;96221.41;5016675;28;20142;-68
2023/05/22 00:11:36;;;;;;;17.15;12.52;;;;;;;13.06;100.00;96228.50;5023295;28;20474;-68
2023/05/22 00:14:02;;;;;;;18.58;13.07;;;;;;;13.10;100.00;96226.50;5020622;28;20402;-66
2023/05/22 00:16:27;;;;;;;18.85;12.75;;;;;;;13.14;100.00;96222.59;5019693;28;20083;-69
2023/05/22 00:18:54;;;;;;;16.45;13.10;;;;;;;13.12;100.00;96224.16;5022523;28;20113;-67
2023/05/22 00:21:19;;;;;;;22.15;13.75;;;;;;;13.01;100.00;96227.69;5017500;28;20064;-66
2023/05/22 00:23:45;;;;;;;19.90;14.25;;;;;;;12.91;100.00;96228.50;5022284;28;20417;-67
2023/05/22 00:26:15;;;;;;;18.67;13.13;;;;;;;12.86;100.00;96230.84;5016427;28;20046;-67
2023/05/22 00:28:40;;;;;;;;;;;;;;;12.80;100.00;96236.75;5022703;28;20180;-68
2023/05/22 00:31:06;;;;;;;20.27;12.25;;;;;;;12.89;100.00;96230.84;5015869;28;19996;-66
2023/05/22 00:33:32;;;;;;;17.00;11.27;;;;;;;13.00;100.00;96239.09;5020745;28;20045;-68
2023/05/22 00:35:58;;;;;;;16.02;12.00;;;;;;;12.98;100.00;96242.25;5021273;28;20152;-67
2023/05/22 00:38:31;;;;;;;18.73;11.95;;;;;;;12.99;100.00;96240.25;5017852;28;20978;-69
2023/05/22 00:40:57;;;;;;;20.95;12.18;;;;;;;13.12;100.00;96246.16;5021687;28;20041;-67
2023/05/22 00:43:22;;;;;;;16.63;12.43;;;;;;;13.06;100.00;96248.50;5016817;28;20271;-67
2023/05/22 00:45:47;;;;;;;14.00;11.07;;;;;;;13.03;100.00;96256.75;5022765;28;20041;-68
2023/05/22 00:48:14;;;;;;;18.23;11.90;;;;;;;13.02;100.00;96250.50;5016033;28;20060;-67
2023/05/22 00:50:40;;;;;;;16.42;11.93;;;;;;;13.03;100.00;96248.50;5021755;28;20044;-67
2023/05/22 00:53:06;;;;;;;15.32;11.10;;;;;;;13.15;100.00;96256.38;5016244;28;20164;-67
2023/05/22 00:55:32;;;;;;;21.33;12.23;;;;;;;13.15;100.00;96256.38;5021264;28;20132;-68
2023/05/22 00:57:57;;;;;;;16.50;12.18;;;;;;;13.02;100.00;96255.97;5022121;28;20405;-67
2023/05/22 01:00:23;;;;;;;18.40;12.95;;;;;;;12.62;100.00;96266.16;5017670;28;20694;-67
2023/05/22 01:02:49;;;;;;;22.17;14.38;;;;;;;12.24;100.00;96263.75;5003699;28;20045;-66
2023/05/22 01:05:16;;;;;;;19.83;14.73;;;;;;;12.01;100.00;96271.47;5016153;28;20067;-67
2023/05/22 01:07:43;;;;;;;23.10;15.57;;;;;;;11.92;100.00;96271.06;5020731;28;20129;-66
2023/05/22 01:10:09;;;;;;;21.20;15.10;;;;;;;11.86;100.00;96265.91;5016248;28;20044;-66
2023/05/22 01:12:44;;;;;;;27.92;15.18;;;;;;;12.00;100.00;96265.22;5020217;28;20339;-68
2023/05/22 01:15:23;;;;;;;21.35;14.13;;;;;;;12.19;100.00;96266.84;4998894;28;20037;-67
2023/05/22 01:18:09;;;;;;;20.10;14.60;;;;;;;12.39;100.00;96267.31;5024570;28;20041;-66
2023/05/22 01:21:20;;;;;;;21.02;13.68;;;;;;;12.45;100.00;96267.69;5019737;28;20096;-67
2023/05/22 01:24:25;;;;;;;20.92;13.95;;;;;;;12.51;100.00;96266.13;5025175;28;20033;-67
2023/05/22 01:27:05;;;;;;;18.77;12.82;;;;;;;12.65;100.00;96267.34;5026552;28;20175;-66
2023/05/22 01:30:11;;;;;;;15.60;11.98;;;;;;;12.80;100.00;96264.22;5026058;28;20041;-67
2023/05/22 01:32:38;;;;;;;15.35;11.85;;;;;;;12.84;100.00;96272.47;5025962;28;20041;-67
2023/05/22 01:35:08;;;;;;;16.38;11.50;;;;;;;12.82;100.00;96274.81;5022835;28;20041;-64
2023/05/22 01:37:35;;;;;;;18.35;12.73;;;;;;;12.77;100.00;96269.72;5025274;28;20050;-66
2023/05/22 01:40:01;;;;;;;18.55;12.43;;;;;;;12.70;100.00;96266.97;5025459;28;20038;-67
2023/05/22 01:42:27;;;;;;;16.67;11.77;;;;;;;12.86;100.00;96272.88;5020229;28;20487;-67
2023/05/22 01:44:52;;;;;;;18.40;12.48;;;;;;;12.92;100.00;96270.50;5026034;28;20046;-67
2023/05/22 01:47:17;;;;;;;18.05;12.75;;;;;;;12.85;100.00;96278.75;5020249;28;20041;-66
2023/05/22 01:49:46;;;;;;;20.90;13.32;;;;;;;12.85;100.00;96276.78;5026725;28;20124;-66
2023/05/22 01:52:33;;;;;;;19.00;12.57;;;;;;;12.85;100.00;96276.00;5019773;28;20037;-66
2023/05/22 01:55:16;;;;;;;15.57;11.63;;;;;;;12.92;100.00;96279.53;5007261;28;20041;-66
2023/05/22 01:58:00;;;;;;;18.88;11.40;;;;;;;13.05;100.00;96288.16;5016510;28;20041;-67
2023/05/22 02:00:27;;;;;;;15.60;11.52;;;;;;;12.97;100.00;96281.88;5019280;28;20049;-66
2023/05/22 02:03:05;;;;;;;17.35;11.68;;;;;;;12.78;100.00;96291.31;5024632;28;20565;-66
2023/05/22 02:05:34;;;;;;;15.98;11.68;;;;;;;12.67;100.00;96292.47;5023830;28;20056;-66
2023/05/22 02:08:01;;;;;;;15.70;12.20;;;;;;;13.02;100.00;96280.72;5024663;28;20096;-66
2023/05/22 02:10:28;;;;;;;20.10;12.40;;;;;;;13.17;100.00;96287.78;5019869;28;20433;-67
2023/05/22 02:12:54;;;;;;;17.02;12.50;;;;;;;13.21;100.00;96287.78;5024410;28;20068;-66
2023/05/22 02:15:20;;;;;;;15.60;11.75;;;;;;;12.72;100.00;96292.09;5019923;28;20041;-66
2023/05/22 02:17:48;;;;;;;19.67;13.75;;;;;;;12.29;100.00;96301.00;5024888;28;20046;-66
2023/05/22 02:20:15;;;;;;;19.80;13.57;;;;;;;12.24;100.00;96293.13;5019678;28;20041;-65
2023/05/22 02:22:42;;;;;;;18.75;13.52;;;;;;;12.14;100.00;96299.41;5024055;28;20115;-66
2023/05/22 02:25:12;;;;;;;19.08;13.35;;;;;;;12.13;100.00;96287.59;5033448;28;20053;-66
2023/05/22 02:27:39;;;;;;;19.27;14.63;;;;;;;12.09;100.00;96289.56;5038195;28;20225;-65
2023/05/22 02:30:05;;;;;;;19.70;12.80;;;;;;;12.11;100.00;96291.94;5024577;28;20038;-64
2023/05/22 02:32:32;;;;;;;17.42;14.10;;;;;;;12.03;100.00;96288.38;5025114;28;20136;-68
2023/05/22 02:34:57;;;;;;;25.48;15.40;;;;;;;11.95;100.00;96289.50;5026212;28;20148;-68
2023/05/22 02:37:23;;;;;;;23.63;14.77;;;;;;;11.86;100.00;96287.06;5006366;28;20546;-68
2023/05/22 02:39:48;;;;;;;19.52;15.05;;;;;;;11.82;100.00;96281.56;5002605;28;20085;-68
2023/05/22 02:42:13;;;;;;;23.10;15.43;;;;;;;11.79;100.00;96287.03;4999006;28;20509;-68
2023/05/22 02:44:39;;;;;;;21.05;14.68;;;;;;;11.78;100.00;96288.22;5002582;28;20045;-68
2023/05/22 02:47:04;;;;;;;21.27;16.02;;;;;;;11.80;100.00;96280.41;4999336;28;20037;-64
2023/05/22 02:49:30;;;;;;;20.23;14.63;;;;;;;11.79;100.00;96287.03;5003372;28;20618;-68
2023/05/22 02:51:55;;;;;;;20.35;13.88;;;;;;;11.80;100.00;96283.16;5008113;28;20049;-67
2023/05/22 02:54:21;;;;;;;23.42;14.65;;;;;;;11.72;100.00;96284.25;5018174;28;20168;-66
2023/05/22 02:56:46;;;;;;;21.73;14.63;;;;;;;11.68;100.00;96292.47;5012906;28;20065;-67
2023/05/22 02:59:11;;;;;;;22.77;15.30;;;;;;;11.64;100.00;96295.19;5000721;28;20064;-66
2023/05/22 03:01:37;;;;;;;21.60;15.65;;;;;;;11.60;100.00;96288.91;5008088;28;20046;-68
2023/05/22 03:04:03;;;;;;;20.45;15.30;;;;;;;11.54;100.00;96290.47;5006228;28;20045;-65
2023/05/22 03:06:29;;;;;;;21.08;15.38;;;;;;;11.52;100.00;96283.75;5008284;28;20454;-68
2023/05/22 03:08:54;;;;;;;22.05;14.95;;;;;;;11.53;100.00;96288.09;5010010;28;20049;-68
2023/05/22 03:11:20;;;;;;;22.10;14.45;;;;;;;11.64;100.00;96288.94;5001960;28;20486;-68
2023/05/22 03:13:45;;;;;;;21.60;14.48;;;;;;;11.67;100.00;96286.22;5003351;28;20494;-68
2023/05/22 03:16:11;;;;;;;19.55;14.38;;;;;;;11.79;100.00;96282.38;4981249;28;20124;-68
2023/05/22 03:18:36;;;;;;;18.70;13.82;;;;;;;11.81;100.00;96292.94;5003257;28;20111;-69
2023/05/22 03:21:02;;;;;;;21.17;14.13;;;;;;;11.90;100.00;96290.66;5003279;28;20482;-69
2023/05/22 03:23:27;;;;;;;18.85;14.13;;;;;;;11.92;100.00;96302.06;5019607;28;20127;-68
2023/05/22 03:25:53;;;;;;;23.80;14.25;;;;;;;11.81;100.00;96304.72;5024528;28;20064;-69
2023/05/22 03:28:18;;;;;;;25.85;15.15;;;;;;;11.67;100.00;96305.41;5017900;28;20041;-68
2023/05/22 03:30:45;;;;;;;23.30;16.00;;;;;;;11.59;100.00;96301.03;5005508;28;20037;-68
2023/05/22 03:33:10;;;;;;;27.85;16.58;;;;;;;11.55;100.00;96305.72;5018248;28;20517;-68
2023/05/22 03:35:36;;;;;;;23.52;15.15;;;;;;;11.56;100.00;96315.53;5023214;28;20042;-67
2023/05/22 03:38:01;;;;;;;24.15;14.77;;;;;;;11.52;100.00;96316.69;5024447;28;20546;-68
2023/05/22 03:40:26;;;;;;;28.13;16.85;;;;;;;11.37;100.00;96310.31;5018645;28;20114;-68
2023/05/22 03:42:52;;;;;;;22.25;15.52;;;;;;;11.32;100.00;96305.19;5023717;28;20398;-68
2023/05/22 03:45:17;;;;;;;26.08;15.65;;;;;;;11.28;100.00;96311.41;5017614;28;20052;-69
2023/05/22 03:47:43;;;;;;;24.90;16.38;;;;;;;11.31;100.00;96312.63;5022728;28;20045;-68
2023/05/22 03:50:08;;;;;;;24.63;16.95;;;;;;;11.34;100.00;96317.34;5017406;28;20037;-67
2023/05/22 03:52:34;;;;;;;24.40;16.88;;;;;;;11.32;100.00;96313.41;5023814;28;20045;-67
2023/05/22 03:54:59;;;;;;;24.02;16.65;;;;;;;11.18;100.00;96306.66;5023289;28;20045;-66
2023/05/22 03:57:25;;;;;;;24.73;16.17;;;;;;;11.16;100.00;96310.94;5017191;28;20045;-69
2023/05/22 03:59:50;;;;;;;23.58;15.98;;;;;;;11.03;100.00;96313.19;5022323;28;20507;-67
2023/05/22 04:02:16;;;;;;;25.20;16.92;;;;;;;11.07;100.00;96317.53;5017828;28;20403;-67
2023/05/22 04:04:44;;;;;;;22.67;15.75;;;;;;;11.06;100.00;96315.19;5022414;28;20402;-68
2023/05/22 04:07:11;;;;;;;24.65;16.40;;;;;;;11.03;100.00;96313.97;5006979;28;20066;-68
2023/05/22 04:09:37;;;;;;;20.42;15.20;;;;;;;11.15;100.00;96318.38;5003361;28;20517;-68
2023/05/22 04:12:03;;;;;;;23.25;15.05;;;;;;;11.30;100.00;96319.25;5002338;28;20113;-69
2023/05/22 04:14:28;;;;;;;22.55;15.57;;;;;;;11.45;100.00;96323.69;5002505;28;20038;-67
2023/05/22 04:16:54;;;;;;;19.70;13.98;;;;;;;11.72;100.00;96320.72;5004629;28;20079;-66
2023/05/22 04:19:19;;;;;;;21.23;14.23;;;;;;;11.99;100.00;96321.28;4998461;28;20402;-67
2023/05/22 04:21:46;;;;;;;17.10;12.40;;;;;;;12.23;100.00;96321.78;5002108;28;20084;-68
2023/05/22 04:24:12;;;;;;;17.23;13.30;;;;;;;12.27;100.00;96322.56;4997080;28;20049;-69
2023/05/22 04:26:38;;;;;;;18.80;12.52;;;;;;;12.17;100.00;96321.38;5002225;28;20060;-67
2023/05/22 04:29:09;;;;;;;16.10;12.00;;;;;;;12.32;100.00;96322.22;5000162;28;20038;-70
2023/05/22 04:31:35;;;;;;;18.38;12.63;;;;;;;12.60;100.00;96332.50;5002107;28;20058;-67
2023/05/22 04:34:01;;;;;;;19.17;13.48;;;;;;;12.87;100.00;96329.38;5001505;28;20038;-68
2023/05/22 04:36:28;;;;;;;19.30;11.75;;;;;;;13.07;100.00;96343.56;5017144;28;20557;-68
2023/05/22 04:38:53;;;;;;;16.58;11.57;;;;;;;13.10;100.00;96347.50;5021182;28;20045;-67
2023/05/22 04:41:21;;;;;;;18.92;12.85;;;;;;;12.54;100.00;96338.75;4998727;28;20045;-65
2023/05/22 04:43:47;;;;;;;16.38;12.73;;;;;;;12.22;100.00;96344.91;5021261;28;20051;-68
2023/05/22 04:46:14;;;;;;;19.48;14.00;;;;;;;12.43;100.00;96339.50;5017077;28;20048;-68
2023/05/22 04:48:40;;;;;;;19.25;13.52;;;;;;;12.83;100.00;96339.59;5021085;28;20095;-68
2023/05/22 04:51:05;;;;;;;18.40;13.07;;;;;;;13.23;100.00;96331.38;5016731;28;20046;-64
2023/05/22 04:53:32;;;;;;;18.42;11.52;;;;;;;13.60;100.00;96332.97;5021657;28;20128;-67
2023/05/22 04:56:00;;;;;;;19.40;11.20;;;;;;;13.91;100.00;96345.88;5022557;28;20702;-67
2023/05/22 04:58:26;;;;;;;15.73;11.25;;;;;;;14.23;100.00;96347.75;5016415;28;20410;-67
2023/05/22 05:00:56;;;;;;;14.70;10.55;;;;;;;14.48;100.00;96352.38;5021190;28;20042;-66
2023/05/22 05:03:24;;;;;;;16.45;10.82;;;;;;;14.66;100.00;96355.09;5016518;28;20057;-65
2023/05/22 05:05:53;;;;;;;14.52;10.90;;;;;;;14.95;100.00;96354.91;5020687;28;20102;-65
2023/05/22 05:08:18;;;;;;;18.20;11.23;;;;;;;15.25;100.00;96355.09;5016456;28;20061;-68
2023/05/22 05:10:44;;;;;;;13.95;9.98;;;;;;;15.79;100.00;96353.84;5021195;28;20566;-66
2023/05/22 05:13:09;;;;;;;15.80;9.30;;;;;;;16.51;100.00;96361.34;5016517;28;20064;-67
2023/05/22 05:15:35;;;;;;;12.68;8.98;;;;;;;17.20;100.00;96350.97;5020945;28;20394;-66
2023/05/22 05:18:00;;;;;;;13.52;8.85;;;;;;;18.21;98.39;96355.59;5020397;28;20049;-66
2023/05/22 05:20:26;;;;;;;15.45;9.30;;;;;;;19.07;93.73;96355.81;5016653;28;20375;-67
2023/05/22 05:22:52;;;;;;;34.38;21.08;;;;;;;20.62;82.84;96361.03;5020889;28;20556;-68
2023/05/22 05:25:17;;;;;;;10.52;8.15;;;;;;;21.73;72.26;96363.22;5016080;28;20065;-67
2023/05/22 05:27:42;;;;;;;10.20;7.57;;;;;;;22.75;66.27;96358.47;5020988;28;20037;-66
2023/05/22 05:30:09;;;;;;;11.98;7.55;;;;;;;23.13;61.96;96362.28;5016468;28;20128;-66
2023/05/22 05:32:35;;;;;;;10.75;6.97;;;;;;;22.98;62.06;96362.03;5020980;28;20069;-66
2023/05/22 05:35:01;;;;;;;15.20;7.95;;;;;;;22.23;63.34;96362.72;5022161;28;20175;-65
2023/05/22 05:37:26;;;;;;;14.40;8.30;;;;;;;21.27;67.73;96353.53;5015542;28;20095;-68
2023/05/22 05:39:51;;;;;;;14.20;9.10;;;;;;;20.31;73.13;96357.91;5021091;28;20040;-67
2023/05/22 05:42:17;;;;;;;13.85;8.70;;;;;;;19.68;78.86;96359.94;5016476;28;20041;-67
2023/05/22 05:44:42;;;;;;;14.80;8.95;;;;;;;19.22;81.63;96359.81;5020679;28;20370;-68
2023/05/22 05:47:08;;;;;;;16.42;10.30;;;;;;;18.60;87.27;96369.84;5015904;28;20037;-66
2023/05/22 05:49:33;;;;;;;17.33;10.30;;;;;;;18.11;92.80;96368.44;5021422;28;20053;-67
2023/05/22 05:51:58;;;;;;;16.95;10.85;;;;;;;18.13;98.18;96363.25;5020637;28;20076;-69
2023/05/22 05:54:27;;;;;;;16.38;11.02;;;;;;;17.23;100.00;96369.47;5014326;28;20048;-68
2023/05/22 05:56:53;;;;;;;13.65;10.73;;;;;;;17.16;100.00;96372.34;5003143;28;20041;-67
2023/05/22 05:59:18;;;;;;;17.60;10.65;;;;;;;18.27;100.00;96378.03;5015941;28;20052;-66
2023/05/22 06:01:45;;;;;;;15.30;9.82;;;;;;;20.16;90.13;96374.97;5020561;28;20084;-67
2023/05/22 06:04:12;;;;;;;13.52;10.07;;;;;;;21.47;73.38;96387.53;5016930;28;20045;-68
2023/05/22 06:06:38;;;;;;;11.98;9.50;;;;;;;22.25;73.06;96386.13;5024183;28;20045;-67
2023/05/22 06:09:06;;;;;;;17.02;9.20;;;;;;;23.26;64.04;96394.47;5021938;28;20045;-68
2023/05/22 06:11:32;;;;;;;11.18;7.93;;;;;;;23.86;61.28;96389.72;5039855;28;20056;-68
2023/05/22 06:14:01;;;;;;;12.98;9.45;;;;;;;24.20;59.91;96399.88;5034917;28;20445;-67
2023/05/22 06:16:27;;;;;;;18.00;9.43;;;;;;;21.83;66.65;96405.88;4997279;28;20076;-66
2023/05/22 06:18:53;;;;;;;16.58;10.90;;;;;;;20.20;78.61;96405.47;5004310;28;20394;-66
2023/05/22 06:21:19;;;;;;;12.90;9.88;;;;;;;19.68;82.85;96405.16;4999821;28;20045;-66
2023/05/22 06:23:46;;;;;;;17.02;11.43;;;;;;;18.91;90.00;96389.88;5003978;28;20038;-65
2023/05/22 06:26:12;;;;;;;20.10;10.73;;;;;;;19.45;89.57;96396.97;4999410;28;20046;-66
2023/05/22 06:28:38;;;;;;;18.20;11.20;;;;;;;20.18;86.13;96394.00;4985801;28;20046;-67
2023/05/22 06:31:03;;;;;;;17.80;11.93;;;;;;;20.56;82.34;96391.38;5001816;28;20042;-69
2023/05/22 06:33:29;;;;;;;22.48;13.18;;;;;;;21.43;78.71;96398.00;5002624;28;20050;-67
2023/05/22 06:35:55;;;;;;;15.00;10.30;;;;;;;23.07;70.40;96395.59;5004086;28;20120;-67
2023/05/22 06:38:20;;;;;;;16.05;10.10;;;;;;;24.47;61.41;96400.34;5000157;28;20070;-67
2023/05/22 06:40:46;;;;;;;12.77;8.40;;;;;;;25.52;57.31;96397.97;5016777;28;20096;-67
2023/05/22 06:43:11;;;;;;;13.10;8.00;;;;;;;26.46;52.42;96396.19;5005834;28;20057;-67
2023/05/22 06:45:37;;;;;;;11.57;8.07;;;;;;;26.58;52.41;96397.16;5003883;28;20069;-67
2023/05/22 06:48:03;;;;;;;11.35;8.50;;;;;;;25.70;51.79;96401.97;5000191;28;20046;-68
2023/05/22 06:50:29;;;;;;;11.98;7.90;;;;;;;26.84;50.62;96403.06;4985189;28;20061;-67
2023/05/22 06:52:55;;;;;;;12.57;8.23;;;;;;;26.76;51.10;96413.09;5004559;28;20046;-67
2023/05/22 06:55:20;;;;;;;12.20;7.88;;;;;;;27.44;48.28;96406.66;4999298;28;20090;-67
2023/05/22 06:57:46;;;;;;;10.18;7.72;;;;;;;28.30;45.32;96400.97;5003381;28;20054;-67
2023/05/22 07:00:12;;;;;;;12.90;8.68;;;;;;;26.68;47.93;96407.88;4999227;28;20065;-67
2023/05/22 07:02:38;;;;;;;12.88;8.32;;;;;;;28.24;45.15;96400.16;5002983;28;20549;-67
2023/05/22 07:05:04;;;;;;;12.48;8.65;;;;;;;25.85;50.25;96397.19;4981690;28;20042;-67
2023/05/22 07:07:29;;;;;;;12.15;9.07;;;;;;;23.90;57.07;96386.78;5002638;28;20053;-66
2023/05/22 07:09:55;;;;;;;11.82;7.60;;;;;;;24.80;56.94;96389.31;5003343;28;20128;-69
2023/05/22 07:12:24;;;;;;;14.48;7.85;;;;;;;26.42;51.35;96390.00;4998879;28;20049;-68
2023/05/22 07:14:50;;;;;;;10.23;7.55;;;;;;;26.76;49.06;96390.63;5002219;28;20046;-67
2023/05/22 07:17:16;;;;;;;11.05;7.53;;;;;;;27.78;47.07;96393.84;4980808;28;20379;-67
2023/05/22 07:19:41;;;;;;;10.10;8.35;;;;;;;27.21;46.29;96400.63;5002264;28;20057;-67
2023/05/22 07:22:06;;;;;;;11.20;7.90;;;;;;;28.59;43.91;96406.50;4980539;28;20042;-66
2023/05/22 07:24:32;;;;;;;9.43;7.40;;;;;;;28.90;42.17;96407.84;5002837;28;20041;-67
2023/05/22 07:26:57;;;;;;;9.65;7.22;;;;;;;28.81;42.83;96402.38;5002751;28;20491;-66
2023/05/22 07:29:23;;;;;;;12.35;7.68;;;;;;;28.09;43.80;96406.63;4999994;28;20175;-67
2023/05/22 07:31:48;;;;;;;12.63;6.82;;;;;;;28.59;43.16;96406.50;5003642;28;20056;-67
2023/05/22 07:34:13;;;;;;;9.68;6.95;;;;;;;28.15;43.49;96406.69;4997979;28;20487;-67
2023/05/22 07:36:39;;;;;;;12.65;7.38;;;;;;;28.12;43.61;96399.22;5003571;28;20045;-65
2023/05/22 07:39:04;;;;;;;12.20;7.40;;;;;;;27.96;42.39;96408.97;4998852;28;20491;-67
2023/05/22 07:41:29;;;;;;;12.20;7.28;;;;;;;27.66;43.64;96409.06;5001279;28;20048;-66
2023/05/22 07:43:55;;;;;;;11.98;7.75;;;;;;;28.00;43.20;96412.34;5002797;28;20414;-66
2023/05/22 07:46:20;;;;;;;11.77;7.43;;;;;;;27.78;43.16;96407.16;4979817;28;20116;-67
2023/05/22 07:48:45;;;;;;;12.40;7.15;;;;;;;28.30;42.10;96406.63;5002170;28;20149;-66
2023/05/22 07:51:12;;;;;;;8.68;6.80;;;;;;;28.12;42.44;96402.81;4998507;28;20056;-67
2023/05/22 07:53:38;;;;;;;10.15;7.15;;;;;;;28.12;42.18;96410.47;5002497;28;20041;-66
2023/05/22 07:56:03;;;;;;;11.15;6.32;;;;;;;27.56;42.83;96405.56;5000965;28;20404;-68
2023/05/22 07:58:28;;;;;;;10.23;7.38;;;;;;;27.94;42.83;96403.84;5001442;28;20042;-67
2023/05/22 08:00:54;;;;;;;12.10;7.30;;;;;;;27.99;42.82;96405.97;5000167;28;20046;-66
2023/05/22 08:03:20;;;;;;;10.98;6.97;;;;;;;28.35;42.06;96405.91;4997589;28;20042;-66
2023/05/22 08:05:46;;;;;;;11.70;7.57;;;;;;;27.97;42.88;96402.88;5001893;28;20050;-66
2023/05/22 08:08:11;;;;;;;9.63;7.40;;;;;;;27.23;44.40;96400.16;4980882;28;20046;-66
2023/05/22 08:10:37;;;;;;;9.63;7.65;;;;;;;27.03;45.33;96393.19;5003127;28;20403;-67
2023/05/22 08:13:05;;;;;;;9.13;7.00;;;;;;;27.43;44.24;96393.88;5000227;28;20041;-69
2023/05/22 08:15:33;;;;;;;11.38;7.20;;;;;;;27.37;44.92;96388.16;5002178;28;20053;-68
2023/05/22 08:17:59;;;;;;;12.10;7.18;;;;;;;26.72;47.33;96387.25;5001914;28;20042;-68
2023/05/22 08:20:25;;;;;;;11.65;8.00;;;;;;;26.23;48.57;96383.72;4997392;28;20447;-66
2023/05/22 08:22:50;;;;;;;8.98;6.38;;;;;;;25.96;49.80;96379.84;4985003;28;20116;-66
2023/05/22 08:25:16;;;;;;;13.35;8.05;;;;;;;25.94;49.10;96373.94;4996701;28;20054;-68
2023/05/22 08:27:41;;;;;;;9.05;6.57;;;;;;;26.18;50.01;96381.56;5001567;28;20053;-67
2023/05/22 08:30:07;;;;;;;9.68;6.40;;;;;;;26.71;48.67;96383.66;4979422;28;20046;-67
2023/05/22 08:32:32;;;;;;;11.07;6.82;;;;;;;25.89;49.49;96378.16;5000911;28;20140;-66
2023/05/22 08:34:58;;;;;;;9.75;6.90;;;;;;;25.65;50.14;96380.94;5001567;28;20045;-67
2023/05/22 08:37:23;;;;;;;10.43;7.68;;;;;;;25.50;50.75;96380.09;4997669;28;20531;-67
2023/05/22 08:39:49;;;;;;;9.43;6.95;;;;;;;26.36;50.06;96381.44;5002475;28;20042;-67
2023/05/22 08:42:14;;;;;;;9.30;7.07;;;;;;;26.04;49.99;96381.06;4997561;28;20037;-67
2023/05/22 08:44:40;;;;;;;9.85;7.28;;;;;;;26.32;48.29;96384.41;5001229;28;20041;-67
2023/05/22 08:47:09;;;;;;;11.40;7.28;;;;;;;26.08;49.36;96373.22;4997295;28;20088;-67
2023/05/22 08:49:35;;;;;;;;;;;;;;;26.25;49.63;96372.78;5001505;28;20050;-67
2023/05/22 08:52:13;;;;;;;8.70;6.45;;;;;;;26.61;48.33;96382.97;5001503;28;20334;-68
2023/05/22 08:54:45;;;;;;;9.25;7.47;;;;;;;26.94;46.57;96387.66;5000845;28;20053;-67
2023/05/22 08:57:10;;;;;;;12.30;7.30;;;;;;;27.11;46.68;96378.75;4975894;28;20518;-68
2023/05/22 08:59:37;;;;;;;13.52;7.18;;;;;;;26.87;47.81;96380.38;4982192;28;20050;-67
2023/05/22 09:02:04;;;;;;;13.35;7.43;;;;;;;26.82;47.27;96377.47;4978834;28;20084;-68
2023/05/22 09:04:30;;;;;;;15.20;7.88;;;;;;;26.76;47.72;96376.59;4981880;28;20174;-66
2023/05/22 09:06:55;;;;;;;12.60;8.02;;;;;;;26.39;49.07;96377.66;4980676;28;20054;-67
2023/05/22 09:09:21;;;;;;;10.02;7.57;;;;;;;26.20;49.84;96368.63;4976671;28;20050;-67
2023/05/22 09:11:46;;;;;;;10.55;7.57;;;;;;;26.19;49.77;96375.47;4980321;28;20038;-67
2023/05/22 09:14:12;;;;;;;11.25;7.70;;;;;;;26.05;51.31;96376.22;4975766;28;20034;-67
2023/05/22 09:16:46;;;;;;;8.48;6.70;;;;;;;26.10;49.58;96370.72;4981080;28;20038;-67
2023/05/22 09:19:13;;;;;;;8.63;6.70;;;;;;;26.15;48.78;96369.28;4975665;28;20046;-67
2023/05/22 09:21:39;;;;;;;14.45;7.18;;;;;;;26.02;49.44;96363.94;4981392;28;20046;-68
2023/05/22 09:24:07;;;;;;;9.13;7.07;;;;;;;26.11;49.47;96372.28;4977008;28;20048;-65
2023/05/22 09:26:33;;;;;;;9.05;6.40;;;;;;;26.13;50.38;96366.19;4981546;28;20461;-68
2023/05/22 09:28:59;;;;;;;11.65;6.43;;;;;;;26.15;50.20;96366.47;4981298;28;20043;-67
2023/05/22 09:31:26;;;;;;;10.80;7.03;;;;;;;26.13;49.85;96364.16;4976679;28;20097;-68
2023/05/22 09:33:52;;;;;;;9.38;6.45;;;;;;;26.58;49.06;96364.25;4980721;28;20221;-67
2023/05/22 09:36:18;;;;;;;10.60;7.25;;;;;;;27.15;46.25;96366.03;4976321;28;20039;-68
2023/05/22 09:38:43;;;;;;;14.52;8.48;;;;;;;27.26;47.35;96368.25;4982550;28;20046;-67
2023/05/22 09:41:09;;;;;;;12.13;6.95;;;;;;;27.09;47.87;96367.97;4980612;28;20149;-67
2023/05/22 09:43:34;;;;;;;14.57;7.25;;;;;;;27.30;48.44;96357.63;4984790;28;20101;-67
2023/05/22 09:46:00;;;;;;;12.32;8.05;;;;;;;26.99;47.67;96364.50;4984981;28;20049;-67
2023/05/22 09:48:26;;;;;;;10.55;7.43;;;;;;;26.78;48.32;96360.81;4981321;28;20129;-67
2023/05/22 09:50:58;;;;;;;11.02;6.93;;;;;;;26.85;48.67;96359.66;4985513;28;20125;-67
2023/05/22 09:53:29;;;;;;;12.60;7.65;;;;;;;27.64;46.76;96352.47;4980257;28;20084;-67
2023/05/22 09:55:56;;;;;;;12.18;6.72;;;;;;;27.55;46.43;96356.22;4985975;28;20053;-68
2023/05/22 09:58:26;;;;;;;13.77;6.22;;;;;;;27.34;48.53;96355.38;4984053;28;20062;-68
2023/05/22 10:00:54;;;;;;;10.25;6.95;;;;;;;27.30;47.71;96356.81;4987274;28;20440;-67
2023/05/22 10:03:23;;;;;;;13.65;7.15;;;;;;;26.77;48.73;96347.25;4980971;28;20053;-67
2023/05/22 10:05:52;;;;;;;12.73;6.38;;;;;;;27.19;49.34;96360.19;4985273;28;20120;-67
2023/05/22 10:08:23;;;;;;;9.15;6.57;;;;;;;27.08;48.16;96355.19;4980343;28;20066;-67
2023/05/22 10:10:53;;;;;;;10.80;7.35;;;;;;;27.32;48.65;96355.09;4984610;28;20041;-67
2023/05/22 10:13:20;;;;;;;10.00;5.85;;;;;;;26.42;48.37;96356.28;4979843;28;20129;-68
2023/05/22 10:15:47;;;;;;;8.30;5.50;;;;;;;26.51;48.52;96348.56;4982944;28;20077;-67
2023/05/22 10:18:14;;;;;;;8.90;5.15;;;;;;;26.33;46.94;96351.53;4981478;28;20589;-68
2023/05/22 10:20:40;;;;;;;9.10;5.80;;;;;;;25.79;49.43;96347.84;4984629;28;20074;-68
2023/05/22 10:23:08;;;;;;;9.90;5.20;;;;;;;26.28;49.79;96338.91;4980094;28;20046;-67
2023/05/22 10:25:36;;;;;;;9.98;6.88;;;;;;;26.63;50.04;96338.34;4985460;28;20039;-67
2023/05/22 10:28:02;;;;;;;12.02;7.72;;;;;;;26.09;50.60;96341.13;4986118;28;20099;-67
2023/05/22 10:30:41;;;;;;;12.07;7.65;;;;;;;25.93;50.42;96339.50;5000809;28;20049;-66
2023/05/22 10:33:15;;;;;;;13.27;7.30;;;;;;;26.11;51.19;96341.41;4998901;28;20056;-67
2023/05/22 10:35:54;;;;;;;11.30;7.30;;;;;;;25.63;51.33;96335.00;4986994;28;20042;-67
2023/05/22 10:38:25;;;;;;;9.97;7.10;;;;;;;25.98;51.66;96324.03;4981131;28;20506;-66
2023/05/22 10:40:51;;;;;;;8.45;6.03;;;;;;;26.11;49.78;96329.41;4986686;28;20499;-67
2023/05/22 10:43:17;;;;;;;9.32;6.70;;;;;;;26.24;50.40;96331.97;4998551;28;20045;-67
2023/05/22 10:45:45;;;;;;;9.30;6.28;;;;;;;26.39;50.06;96321.50;5004078;28;20064;-67
2023/05/22 10:48:11;;;;;;;10.73;6.38;;;;;;;26.15;49.42;96327.19;4999066;28;20046;-67
2023/05/22 10:50:38;;;;;;;10.25;6.53;;;;;;;26.14;50.55;96320.00;5004052;28;20060;-67
2023/05/22 10:53:26;;;;;;;12.25;6.22;;;;;;;26.01;51.08;96317.47;5000822;28;20045;-69
2023/05/22 10:55:55;;;;;;;9.25;5.93;;;;;;;26.21;50.37;96318.88;5003881;28;20124;-66
2023/05/22 10:58:29;;;;;;;10.00;6.35;;;;;;;26.62;50.52;96311.50;4981061;28;20060;-67
2023/05/22 11:01:08;;;;;;;8.75;5.78;;;;;;;26.93;49.03;96310.22;5003582;28;20491;-68
2023/05/22 11:03:59;;;;;;;8.80;6.15;;;;;;;26.94;48.86;96300.56;5002244;28;20046;-67
2023/05/22 11:06:47;;;;;;;12.57;6.90;;;;;;;26.58;49.98;96301.69;4998891;28;20045;-66
2023/05/22 11:09:19;;;;;;;9.07;6.07;;;;;;;26.32;48.48;96305.81;4999312;28;20068;-66
2023/05/22 11:12:20;;;;;;;12.20;7.07;;;;;;;26.33;50.39;96304.56;5003717;28;20462;-68
2023/05/22 11:14:51;;;;;;;9.52;6.07;;;;;;;26.26;49.46;96293.72;5003973;28;20111;-68
2023/05/22 11:17:27;;;;;;;9.32;6.05;;;;;;;25.90;48.64;96291.97;4998685;28;20049;-68
2023/05/22 11:20:03;;;;;;;9.25;6.60;;;;;;;25.78;50.80;96290.94;5003790;28;20053;-68
2023/05/22 11:22:41;;;;;;;9.98;6.43;;;;;;;25.44;51.68;96283.84;5001099;28;20038;-67